createdAt,value
2019-06-07T00:00:38.958Z,10.20
2019-06-07T00:01:22.426Z,10.50
2019-06-07T00:02:22.466Z,10.70
2019-06-07T00:03:29.520Z,11.60
2019-06-07T00:04:22.552Z,11.20
2019-06-07T00:05:22.593Z,10.50
2019-06-07T00:06:25.485Z,10.20
2019-06-07T00:07:22.685Z,9.40
2019-06-07T00:08:28.435Z,8.30
2019-06-07T00:09:22.968Z,8.70
2019-06-07T00:10:35.927Z,8.80
2019-06-07T00:11:22.845Z,8.80
2019-06-07T00:12:22.887Z,7.90
2019-06-07T00:13:22.927Z,8.50
2019-06-07T00:14:23.002Z,8.10
2019-06-07T00:15:28.855Z,8.40
2019-06-07T00:16:23.575Z,8.80
2019-06-07T00:17:23.104Z,9.00
2019-06-07T00:18:25.819Z,9.00
2019-06-07T00:19:23.181Z,8.70
2019-06-07T00:20:23.835Z,8.40
2019-06-07T00:22:12.224Z,8.70
2019-06-07T00:22:32.267Z,8.80
2019-06-07T00:23:23.349Z,9.80
2019-06-07T00:24:23.390Z,10.10
2019-06-07T00:25:24.554Z,10.60
2019-06-07T00:26:23.477Z,11.70
2019-06-07T00:27:23.526Z,11.70
2019-06-07T00:28:23.564Z,11.60
2019-06-07T00:29:23.610Z,11.20
2019-06-07T00:30:42.336Z,11.70
2019-06-07T00:31:24.733Z,12.60
2019-06-07T00:32:23.729Z,11.80
2019-06-07T00:33:24.957Z,11.70
2019-06-07T00:34:25.079Z,12.50
2019-06-07T00:35:23.855Z,12.10
2019-06-07T00:36:23.895Z,12.50
2019-06-07T00:37:25.589Z,12.50
2019-06-07T00:38:23.982Z,11.50
2019-06-07T00:39:25.990Z,11.70
2019-06-07T00:40:31.393Z,12.10
2019-06-07T00:41:24.106Z,12.00
2019-06-07T00:42:24.575Z,12.60
2019-06-07T00:43:28.136Z,12.80
2019-06-07T00:44:24.232Z,12.00
2019-06-07T00:45:24.871Z,13.30
2019-06-07T00:46:25.383Z,12.70
2019-06-07T00:47:25.807Z,12.80
2019-06-07T00:48:31.315Z,13.00
2019-06-07T00:49:40.000Z,13.70
2019-06-07T00:50:24.683Z,14.00
2019-06-07T00:51:24.527Z,14.20
2019-06-07T00:53:12.842Z,13.50
2019-06-07T00:53:31.685Z,14.00
2019-06-07T00:54:25.263Z,13.50
2019-06-07T00:55:27.526Z,14.10
2019-06-07T00:56:24.737Z,14.10
2019-06-07T00:57:24.780Z,14.00
2019-06-07T00:58:27.904Z,14.10
2019-06-07T00:59:29.233Z,14.50
2019-06-07T01:00:25.690Z,14.40
2019-06-07T01:01:25.604Z,14.00
2019-06-07T01:02:28.972Z,13.90
2019-06-07T01:03:25.967Z,13.70
2019-06-07T01:04:26.437Z,13.40
2019-06-07T01:05:31.010Z,13.50
2019-06-07T01:06:25.164Z,13.40
2019-06-07T01:07:25.198Z,13.90
2019-06-07T01:08:29.924Z,13.20
2019-06-07T01:09:25.656Z,13.20
2019-06-07T01:10:51.580Z,13.60
2019-06-07T01:11:26.089Z,13.70
2019-06-07T01:12:27.076Z,13.90
2019-06-07T01:13:26.976Z,13.40
2019-06-07T01:14:28.545Z,14.10
2019-06-07T01:15:28.558Z,13.80
2019-06-07T01:16:26.404Z,13.70
2019-06-07T01:17:39.901Z,13.90
2019-06-07T01:18:37.463Z,13.80
2019-06-07T01:19:27.593Z,14.20
2019-06-07T01:20:26.763Z,13.90
2019-06-07T01:21:29.714Z,13.20
2019-06-07T01:22:29.033Z,13.10
2019-06-07T01:23:59.766Z,13.90
2019-06-07T01:24:25.912Z,13.70
2019-06-07T01:25:26.471Z,13.80
2019-06-07T01:26:29.425Z,14.10
2019-06-07T01:27:26.037Z,14.70
2019-06-07T01:28:27.076Z,15.20
2019-06-07T01:29:29.510Z,14.40
2019-06-07T01:30:26.778Z,14.80
2019-06-07T01:31:30.421Z,14.90
2019-06-07T01:32:27.280Z,14.60
2019-06-07T01:33:46.455Z,14.80
2019-06-07T01:34:26.908Z,15.20
2019-06-07T01:35:26.375Z,14.60
2019-06-07T01:36:29.530Z,15.20
2019-06-07T01:37:27.996Z,14.00
2019-06-07T01:38:26.923Z,14.90
2019-06-07T01:39:30.987Z,14.90
2019-06-07T01:40:30.425Z,14.70
2019-06-07T01:41:30.112Z,13.70
2019-06-07T01:42:29.472Z,14.00
2019-06-07T01:43:30.476Z,14.60
2019-06-07T01:44:27.966Z,13.90
2019-06-07T01:45:30.619Z,14.80
2019-06-07T01:46:26.950Z,14.10
2019-06-07T01:47:29.358Z,14.50
2019-06-07T01:48:45.341Z,14.40
2019-06-07T01:49:29.449Z,14.00
2019-06-07T01:50:27.291Z,14.50
2019-06-07T01:51:30.349Z,15.00
2019-06-07T01:52:27.086Z,14.50
2019-06-07T01:53:29.141Z,14.60
2019-06-07T01:54:52.062Z,14.20
2019-06-07T01:55:31.720Z,14.10
2019-06-07T01:56:29.587Z,15.00
2019-06-07T01:57:42.422Z,15.20
2019-06-07T01:58:29.215Z,14.50
2019-06-07T01:59:28.597Z,14.80
2019-06-07T02:00:31.923Z,14.80
2019-06-07T02:01:34.662Z,14.00
2019-06-07T02:02:30.036Z,13.80
2019-06-07T02:03:30.678Z,14.00
2019-06-07T02:04:32.447Z,14.60
2019-06-07T02:05:30.918Z,14.00
2019-06-07T02:06:31.843Z,14.60
2019-06-07T02:07:32.629Z,14.20
2019-06-07T02:08:33.995Z,14.50
2019-06-07T02:09:31.188Z,15.40
2019-06-07T02:10:32.505Z,14.40
2019-06-07T02:11:29.323Z,14.50
2019-06-07T02:12:34.650Z,14.10
2019-06-07T02:13:30.599Z,14.10
2019-06-07T02:14:30.613Z,13.60
2019-06-07T02:15:32.027Z,14.00
2019-06-07T02:16:32.027Z,13.10
2019-06-07T02:17:30.208Z,13.30
2019-06-07T02:18:32.599Z,13.80
2019-06-07T02:19:32.740Z,13.80
2019-06-07T02:20:33.471Z,13.10
2019-06-07T02:21:33.434Z,13.40
2019-06-07T02:22:32.102Z,13.30
2019-06-07T02:23:33.056Z,14.60
2019-06-07T02:24:29.611Z,14.40
2019-06-07T02:25:38.291Z,14.60
2019-06-07T02:26:32.174Z,14.10
2019-06-07T02:27:30.565Z,13.90
2019-06-07T02:28:42.229Z,15.00
2019-06-07T02:29:32.924Z,14.70
2019-06-07T02:30:44.938Z,14.10
2019-06-07T02:31:38.297Z,14.90
2019-06-07T02:32:31.699Z,14.50
2019-06-07T02:33:34.049Z,14.50
2019-06-07T02:34:35.833Z,14.80
2019-06-07T02:35:34.805Z,13.90
2019-06-07T02:36:35.183Z,14.40
2019-06-07T02:37:32.411Z,14.10
2019-06-07T02:38:35.920Z,15.10
2019-06-07T02:39:34.536Z,15.70
2019-06-07T02:40:36.417Z,13.80
2019-06-07T02:41:35.439Z,14.30
2019-06-07T02:42:35.506Z,14.00
2019-06-07T02:43:34.397Z,14.40
2019-06-07T02:44:33.089Z,13.90
2019-06-07T02:45:36.159Z,13.50
2019-06-07T02:46:39.948Z,14.00
2019-06-07T02:47:32.408Z,13.40
2019-06-07T02:48:35.460Z,13.70
2019-06-07T02:49:36.258Z,13.50
2019-06-07T02:50:34.081Z,13.20
2019-06-07T02:51:35.827Z,13.60
2019-06-07T02:52:34.393Z,12.90
2019-06-07T02:53:32.648Z,12.80
2019-06-07T02:54:32.351Z,12.40
2019-06-07T02:55:34.756Z,13.00
2019-06-07T02:56:54.139Z,13.40
2019-06-07T02:57:37.016Z,12.90
2019-06-07T02:58:34.507Z,13.20
2019-06-07T02:59:54.958Z,13.30
2019-06-07T03:01:35.940Z,12.90
2019-06-07T03:02:33.275Z,13.60
2019-06-07T03:03:31.208Z,13.80
2019-06-07T03:04:34.881Z,13.80
2019-06-07T03:05:34.180Z,13.60
2019-06-07T03:06:34.230Z,14.40
2019-06-07T03:07:33.042Z,13.60
2019-06-07T03:08:30.838Z,14.40
2019-06-07T03:09:32.820Z,14.30
2019-06-07T03:10:32.266Z,13.80
2019-06-07T03:11:32.323Z,13.60
2019-06-07T03:12:32.323Z,13.50
2019-06-07T03:13:31.925Z,14.60
2019-06-07T03:14:32.517Z,13.20
2019-06-07T03:15:39.545Z,13.90
2019-06-07T03:16:31.289Z,13.80
2019-06-07T03:17:35.332Z,13.40
2019-06-07T03:18:32.175Z,13.60
2019-06-07T03:19:31.358Z,14.40
2019-06-07T03:20:32.715Z,13.70
2019-06-07T03:21:31.470Z,13.90
2019-06-07T03:22:32.040Z,13.40
2019-06-07T03:23:32.360Z,13.00
2019-06-07T03:24:33.164Z,14.10
2019-06-07T03:25:33.572Z,13.20
2019-06-07T03:26:35.185Z,13.50
2019-06-07T03:27:36.161Z,26.20
2019-06-07T03:28:34.714Z,71.20
2019-06-07T03:29:32.228Z,12.40
2019-06-07T03:30:52.172Z,11.60
2019-06-07T03:31:37.931Z,12.00
2019-06-07T03:32:38.593Z,12.00
2019-06-07T03:33:33.304Z,12.00
2019-06-07T03:34:38.120Z,12.80
2019-06-07T03:35:34.348Z,12.20
2019-06-07T03:36:32.152Z,12.40
2019-06-07T03:37:37.565Z,12.40
2019-06-07T03:38:33.177Z,12.60
2019-06-07T03:39:33.476Z,13.30
2019-06-07T03:40:32.302Z,13.50
2019-06-07T03:41:36.659Z,13.60
2019-06-07T03:42:32.292Z,12.70
2019-06-07T03:43:34.990Z,12.50
2019-06-07T03:44:33.963Z,12.30
2019-06-07T03:45:33.073Z,12.60
2019-06-07T03:46:36.262Z,12.70
2019-06-07T03:47:35.736Z,12.40
2019-06-07T03:48:32.897Z,12.40
2019-06-07T03:49:37.563Z,12.00
2019-06-07T03:50:35.942Z,12.10
2019-06-07T03:51:32.913Z,11.80
2019-06-07T03:52:35.628Z,12.20
2019-06-07T03:53:34.011Z,12.30
2019-06-07T03:54:34.858Z,12.10
2019-06-07T03:55:36.627Z,12.70
2019-06-07T03:56:33.751Z,12.10
2019-06-07T03:58:24.832Z,11.20
2019-06-07T03:58:37.900Z,11.30
2019-06-07T03:59:38.666Z,10.90
2019-06-07T04:00:34.897Z,12.00
2019-06-07T04:01:34.728Z,11.60
2019-06-07T04:02:33.827Z,10.90
2019-06-07T04:03:40.101Z,10.60
2019-06-07T04:04:34.982Z,10.30
2019-06-07T04:05:38.186Z,10.10
2019-06-07T04:06:36.147Z,9.80
2019-06-07T04:07:35.666Z,9.50
2019-06-07T04:08:36.433Z,9.00
2019-06-07T04:09:35.710Z,8.60
2019-06-07T04:10:52.034Z,8.10
2019-06-07T04:11:34.995Z,9.00
2019-06-07T04:12:35.570Z,9.00
2019-06-07T04:13:36.279Z,8.70
2019-06-07T04:14:35.020Z,9.00
2019-06-07T04:15:35.994Z,8.60
2019-06-07T04:16:37.997Z,9.00
2019-06-07T04:17:34.677Z,8.80
2019-06-07T04:18:35.648Z,8.30
2019-06-07T04:19:37.255Z,8.20
2019-06-07T04:20:35.733Z,8.40
2019-06-07T04:21:35.143Z,8.20
2019-06-07T04:22:37.601Z,8.30
2019-06-07T04:23:36.775Z,7.60
2019-06-07T04:24:34.686Z,8.10
2019-06-07T04:25:37.077Z,8.20
2019-06-07T04:26:35.072Z,7.60
2019-06-07T04:27:35.611Z,7.20
2019-06-07T04:29:25.975Z,7.90
2019-06-07T04:29:54.663Z,7.70
2019-06-07T04:30:36.522Z,7.10
2019-06-07T04:31:35.861Z,7.20
2019-06-07T04:32:36.283Z,7.50
2019-06-07T04:33:37.130Z,7.30
2019-06-07T04:34:37.558Z,7.50
2019-06-07T04:35:34.852Z,6.90
2019-06-07T04:36:46.104Z,7.50
2019-06-07T04:37:36.135Z,7.10
2019-06-07T04:38:37.911Z,7.50
2019-06-07T04:39:38.148Z,7.40
2019-06-07T04:40:36.161Z,6.90
2019-06-07T04:41:36.797Z,7.50
2019-06-07T04:42:37.854Z,6.70
2019-06-07T04:43:35.645Z,7.30
2019-06-07T04:44:37.027Z,6.60
2019-06-07T04:45:41.773Z,7.00
2019-06-07T04:46:38.983Z,7.10
2019-06-07T04:47:36.751Z,7.30
2019-06-07T04:48:35.933Z,6.90
2019-06-07T04:49:38.211Z,7.20
2019-06-07T04:50:37.479Z,7.10
2019-06-07T04:51:36.593Z,7.40
2019-06-07T04:52:39.906Z,7.40
2019-06-07T04:53:38.110Z,7.30
2019-06-07T04:54:37.292Z,7.00
2019-06-07T04:55:38.649Z,7.60
2019-06-07T04:56:38.525Z,7.20
2019-06-07T04:57:35.450Z,7.40
2019-06-07T04:58:35.782Z,8.20
2019-06-07T05:00:11.155Z,8.00
2019-06-07T05:00:49.801Z,7.90
2019-06-07T05:01:37.453Z,7.80
2019-06-07T05:02:39.784Z,7.30
2019-06-07T05:03:38.853Z,8.30
2019-06-07T05:04:37.130Z,7.70
2019-06-07T05:05:40.882Z,7.90
2019-06-07T05:06:37.592Z,7.70
2019-06-07T05:07:37.816Z,7.80
2019-06-07T05:08:36.189Z,8.20
2019-06-07T05:09:38.611Z,7.90
2019-06-07T05:10:38.224Z,8.20
2019-06-07T05:11:36.499Z,8.20
2019-06-07T05:12:39.513Z,8.10
2019-06-07T05:13:38.445Z,8.50
2019-06-07T05:14:36.731Z,9.00
2019-06-07T05:15:39.011Z,8.60
2019-06-07T05:16:40.251Z,9.30
2019-06-07T05:17:37.213Z,9.10
2019-06-07T05:18:39.619Z,9.40
2019-06-07T05:19:38.636Z,9.00
2019-06-07T05:20:37.864Z,9.20
2019-06-07T05:21:54.203Z,9.50
2019-06-07T05:22:42.027Z,9.40
2019-06-07T05:24:05.904Z,8.90
2019-06-07T05:24:38.487Z,8.80
2019-06-07T05:25:38.433Z,9.30
2019-06-07T05:26:40.189Z,9.50
2019-06-07T05:27:38.676Z,9.50
2019-06-07T05:28:39.713Z,9.10
2019-06-07T05:29:37.242Z,9.50
2019-06-07T05:31:03.026Z,10.00
2019-06-07T05:31:39.604Z,9.20
2019-06-07T05:32:37.533Z,9.00
2019-06-07T05:33:38.093Z,9.70
2019-06-07T05:34:39.212Z,10.20
2019-06-07T05:35:40.113Z,9.70
2019-06-07T05:36:39.352Z,9.10
2019-06-07T05:37:38.248Z,8.70
2019-06-07T05:38:40.524Z,9.40
2019-06-07T05:39:38.475Z,10.00
2019-06-07T05:40:39.457Z,9.20
2019-06-07T05:41:40.657Z,8.90
2019-06-07T05:42:40.211Z,9.40
2019-06-07T05:43:40.993Z,8.70
2019-06-07T05:44:39.103Z,9.30
2019-06-07T05:45:39.256Z,9.60
2019-06-07T05:46:38.587Z,8.70
2019-06-07T05:47:40.900Z,8.80
2019-06-07T05:48:40.333Z,8.80
2019-06-07T05:49:39.589Z,8.40
2019-06-07T05:50:44.924Z,7.80
2019-06-07T05:51:38.091Z,8.00
2019-06-07T05:52:40.501Z,8.50
2019-06-07T05:53:39.964Z,8.20
2019-06-07T05:54:38.244Z,7.70
2019-06-07T05:55:37.881Z,8.00
2019-06-07T05:56:39.362Z,8.30
2019-06-07T05:57:40.529Z,8.00
2019-06-07T05:58:37.781Z,7.80
2019-06-07T05:59:41.078Z,7.80
2019-06-07T06:00:38.909Z,7.60
2019-06-07T06:01:45.065Z,8.20
2019-06-07T06:02:58.725Z,8.30
2019-06-07T06:03:38.036Z,8.20
2019-06-07T06:04:40.239Z,8.50
2019-06-07T06:05:42.393Z,8.30
2019-06-07T06:06:39.597Z,7.90
2019-06-07T06:07:41.174Z,8.40
2019-06-07T06:08:39.594Z,8.30
2019-06-07T06:09:38.186Z,8.00
2019-06-07T06:10:40.365Z,8.20
2019-06-07T06:11:49.475Z,8.00
2019-06-07T06:12:42.702Z,8.30
2019-06-07T06:13:54.517Z,8.50
2019-06-07T06:14:41.992Z,8.30
2019-06-07T06:15:46.302Z,9.20
2019-06-07T06:16:39.767Z,8.20
2019-06-07T06:17:42.676Z,8.40
2019-06-07T06:18:38.274Z,8.90
2019-06-07T06:19:40.667Z,8.40
2019-06-07T06:21:00.970Z,8.50
2019-06-07T06:21:38.630Z,8.30
2019-06-07T06:22:43.508Z,8.60
2019-06-07T06:23:39.521Z,8.50
2019-06-07T06:24:39.367Z,8.20
2019-06-07T06:25:42.703Z,7.80
2019-06-07T06:26:46.182Z,8.60
2019-06-07T06:28:40.085Z,8.00
2019-06-07T06:29:40.555Z,7.50
2019-06-07T06:30:41.031Z,7.60
2019-06-07T06:31:42.052Z,7.20
2019-06-07T06:32:42.970Z,7.70
2019-06-07T06:33:39.620Z,7.50
2019-06-07T06:34:40.134Z,8.00
2019-06-07T06:35:39.861Z,7.20
2019-06-07T06:36:39.864Z,7.20
2019-06-07T06:37:42.526Z,7.20
2019-06-07T06:38:39.706Z,6.80
2019-06-07T06:39:39.574Z,7.00
2019-06-07T06:40:43.304Z,6.80
2019-06-07T06:41:50.693Z,6.90
2019-06-07T06:42:39.808Z,7.00
2019-06-07T06:43:44.277Z,7.00
2019-06-07T06:44:41.816Z,6.90
2019-06-07T06:45:40.188Z,6.60
2019-06-07T06:46:44.786Z,6.70
2019-06-07T06:47:40.757Z,7.50
2019-06-07T06:48:40.922Z,6.80
2019-06-07T06:49:40.409Z,7.00
2019-06-07T06:50:41.104Z,7.00
2019-06-07T06:51:42.072Z,7.70
2019-06-07T06:52:43.487Z,7.20
2019-06-07T06:53:41.675Z,7.60
2019-06-07T06:54:44.642Z,8.00
2019-06-07T06:55:41.385Z,7.70
2019-06-07T06:56:43.529Z,8.00
2019-06-07T06:57:41.705Z,7.10
2019-06-07T06:59:21.681Z,7.30
2019-06-07T06:59:41.774Z,7.80
2019-06-07T07:00:46.322Z,7.80
2019-06-07T07:01:40.183Z,8.10
2019-06-07T07:03:27.120Z,8.20
2019-06-07T07:04:03.984Z,7.70
2019-06-07T07:04:41.943Z,7.60
2019-06-07T07:05:40.741Z,7.50
2019-06-07T07:06:41.489Z,8.00
2019-06-07T07:07:40.442Z,8.00
2019-06-07T07:08:40.918Z,8.90
2019-06-07T07:09:43.848Z,8.10
2019-06-07T07:10:40.756Z,8.50
2019-06-07T07:11:59.282Z,8.20
2019-06-07T07:12:40.733Z,8.10
2019-06-07T07:13:41.634Z,8.60
2019-06-07T07:14:42.988Z,8.50
2019-06-07T07:15:42.803Z,8.40
2019-06-07T07:16:42.216Z,8.30
2019-06-07T07:17:53.808Z,8.90
2019-06-07T07:18:41.748Z,7.90
2019-06-07T07:19:42.575Z,8.20
2019-06-07T07:20:43.547Z,9.00
2019-06-07T07:21:42.065Z,8.50
2019-06-07T07:22:42.768Z,8.30
2019-06-07T07:24:03.201Z,8.20
2019-06-07T07:24:41.882Z,8.70
2019-06-07T07:25:43.550Z,8.40
2019-06-07T07:26:45.251Z,9.00
2019-06-07T07:27:42.242Z,8.40
2019-06-07T07:28:43.056Z,8.50
2019-06-07T07:29:43.703Z,8.80
2019-06-07T07:30:42.840Z,8.80
2019-06-07T07:31:43.021Z,8.70
2019-06-07T07:32:45.072Z,8.80
2019-06-07T07:34:27.377Z,9.10
2019-06-07T07:34:45.532Z,8.80
2019-06-07T07:36:03.195Z,8.60
2019-06-07T07:36:44.784Z,9.00
2019-06-07T07:37:41.782Z,9.10
2019-06-07T07:38:41.827Z,8.40
2019-06-07T07:39:41.871Z,8.50
2019-06-07T07:41:02.260Z,8.50
2019-06-07T07:42:04.978Z,8.30
2019-06-07T07:42:42.006Z,8.90
2019-06-07T07:43:42.051Z,8.40
2019-06-07T07:44:42.111Z,8.00
2019-06-07T07:45:43.846Z,8.60
2019-06-07T07:46:42.186Z,7.90
2019-06-07T07:48:00.846Z,7.40
2019-06-07T07:48:43.512Z,7.40
2019-06-07T07:49:42.320Z,7.40
2019-06-07T07:50:42.368Z,7.10
2019-06-07T07:51:42.409Z,7.50
2019-06-07T07:52:42.453Z,7.10
2019-06-07T07:53:51.880Z,7.50
2019-06-07T07:54:42.543Z,7.20
2019-06-07T07:55:42.596Z,7.70
2019-06-07T07:56:42.633Z,7.40
2019-06-07T07:57:42.705Z,7.40
2019-06-07T07:58:42.774Z,7.30
2019-06-07T08:00:00.560Z,6.80
2019-06-07T08:00:55.027Z,6.60
2019-06-07T08:01:42.856Z,7.20
2019-06-07T08:02:42.902Z,6.90
2019-06-07T08:03:42.948Z,6.90
2019-06-07T08:05:13.854Z,6.70
2019-06-07T08:05:45.092Z,6.70
2019-06-07T08:06:43.082Z,6.40
2019-06-07T08:07:43.128Z,6.00
2019-06-07T08:08:43.172Z,6.40
2019-06-07T08:09:43.221Z,6.00
2019-06-07T08:10:43.264Z,6.00
2019-06-07T08:11:43.310Z,5.50
2019-06-07T08:13:00.429Z,6.30
2019-06-07T08:13:43.400Z,6.30
2019-06-07T08:14:43.465Z,6.00
2019-06-07T08:15:43.488Z,6.40
2019-06-07T08:16:43.533Z,6.30
2019-06-07T08:17:43.581Z,6.10
2019-06-07T08:18:43.628Z,6.10
2019-06-07T08:19:43.672Z,6.20
2019-06-07T08:21:05.954Z,6.00
2019-06-07T08:21:43.762Z,6.20
2019-06-07T08:22:43.809Z,6.20
2019-06-07T08:23:43.863Z,6.10
2019-06-07T08:24:43.900Z,6.00
2019-06-07T08:25:43.989Z,5.80
2019-06-07T08:26:43.992Z,6.30
2019-06-07T08:27:44.037Z,5.90
2019-06-07T08:28:44.080Z,5.40
2019-06-07T08:29:54.050Z,5.30
2019-06-07T08:30:52.347Z,5.70
2019-06-07T08:31:44.219Z,5.60
2019-06-07T08:32:44.273Z,5.70
2019-06-07T08:33:44.309Z,6.00
2019-06-07T08:34:44.355Z,6.00
2019-06-07T08:36:05.894Z,5.80
2019-06-07T08:36:44.446Z,5.60
2019-06-07T08:38:48.103Z,5.90
2019-06-07T08:39:44.586Z,5.80
2019-06-07T08:40:44.629Z,6.30
2019-06-07T08:41:59.791Z,6.10
2019-06-07T08:43:02.921Z,6.00
2019-06-07T08:43:44.767Z,5.70
2019-06-07T08:44:44.814Z,5.90
2019-06-07T08:45:44.863Z,6.90
2019-06-07T08:46:44.906Z,6.70
2019-06-07T08:47:44.963Z,6.00
2019-06-07T08:48:44.997Z,6.30
2019-06-07T08:49:45.044Z,6.60
2019-06-07T08:50:45.091Z,6.30
2019-06-07T08:51:45.145Z,6.00
2019-06-07T08:52:45.242Z,6.30
2019-06-07T08:54:02.681Z,6.80
2019-06-07T08:54:45.274Z,6.10
2019-06-07T08:55:45.322Z,6.30
2019-06-07T08:56:45.367Z,6.00
2019-06-07T08:57:45.419Z,6.00
2019-06-07T08:58:45.462Z,5.90
2019-06-07T08:59:45.509Z,5.70
2019-06-07T09:00:47.537Z,5.50
2019-06-07T09:01:45.632Z,5.40
2019-06-07T09:02:45.648Z,5.10
2019-06-07T09:03:45.704Z,6.20
2019-06-07T09:04:45.739Z,6.10
2019-06-07T09:05:45.802Z,6.00
2019-06-07T09:07:09.007Z,5.10
2019-06-07T09:07:45.878Z,5.20
2019-06-07T09:08:46.043Z,5.50
2019-06-07T09:09:46.006Z,5.40
2019-06-07T09:10:46.025Z,5.10
2019-06-07T09:11:46.064Z,4.90
2019-06-07T09:12:46.115Z,4.70
2019-06-07T09:13:46.165Z,4.40
2019-06-07T09:14:59.472Z,4.40
2019-06-07T09:15:46.363Z,4.40
2019-06-07T09:16:46.307Z,4.30
2019-06-07T09:18:30.643Z,3.80
2019-06-07T09:18:46.390Z,4.00
2019-06-07T09:19:46.439Z,4.30
2019-06-07T09:20:46.482Z,4.10
2019-06-07T09:21:46.530Z,4.00
2019-06-07T09:22:46.581Z,3.80
2019-06-07T09:23:46.625Z,3.90
2019-06-07T09:24:46.676Z,4.20
2019-06-07T09:25:57.269Z,4.20
2019-06-07T09:26:46.764Z,3.90
2019-06-07T09:27:46.828Z,4.10
2019-06-07T09:28:46.857Z,4.10
2019-06-07T09:29:46.904Z,4.00
2019-06-07T09:30:46.954Z,4.70
2019-06-07T09:31:53.279Z,4.00
2019-06-07T09:32:47.044Z,3.90
2019-06-07T09:33:47.089Z,4.10
2019-06-07T09:34:47.194Z,4.50
2019-06-07T09:35:47.203Z,4.00
2019-06-07T09:36:47.231Z,3.60
2019-06-07T09:38:07.728Z,4.10
2019-06-07T09:38:47.358Z,4.20
2019-06-07T09:39:47.371Z,4.20
2019-06-07T09:40:47.418Z,4.20
2019-06-07T09:41:50.301Z,3.80
2019-06-07T09:42:47.518Z,4.20
2019-06-07T09:44:01.826Z,4.20
2019-06-07T09:44:47.605Z,4.30
2019-06-07T09:45:47.654Z,4.10
2019-06-07T09:46:47.706Z,4.40
2019-06-07T09:47:47.746Z,4.60
2019-06-07T09:49:12.353Z,4.70
2019-06-07T09:49:47.883Z,4.60
2019-06-07T09:50:47.883Z,4.60
2019-06-07T09:51:47.930Z,4.60
2019-06-07T09:52:58.529Z,4.50
2019-06-07T09:53:48.051Z,4.60
2019-06-07T09:55:11.987Z,4.60
2019-06-07T09:55:48.118Z,4.40
2019-06-07T09:56:48.163Z,4.50
2019-06-07T09:57:48.208Z,4.30
2019-06-07T09:58:51.900Z,4.10
2019-06-07T09:59:48.301Z,4.20
2019-06-07T10:00:48.351Z,4.10
2019-06-07T10:01:49.544Z,4.40
2019-06-07T10:02:48.442Z,4.50
2019-06-07T10:03:48.497Z,3.60
2019-06-07T10:04:48.534Z,4.20
2019-06-07T10:05:48.585Z,4.30
2019-06-07T10:06:48.634Z,4.80
2019-06-07T10:08:02.542Z,4.50
2019-06-07T10:10:48.814Z,4.40
2019-06-07T10:11:48.862Z,4.80
2019-06-07T10:12:48.915Z,4.20
2019-06-07T10:13:48.951Z,4.20
2019-06-07T10:14:48.999Z,4.60
2019-06-07T10:15:49.042Z,5.00
2019-06-07T10:16:49.087Z,4.80
2019-06-07T10:17:49.133Z,4.50
2019-06-07T10:18:49.183Z,4.70
2019-06-07T10:19:49.226Z,4.80
2019-06-07T10:20:49.274Z,4.70
2019-06-07T10:21:49.320Z,4.20
2019-06-07T10:22:49.365Z,5.20
2019-06-07T10:23:49.415Z,5.10
2019-06-07T10:24:49.464Z,4.90
2019-06-07T10:25:49.501Z,4.70
2019-06-07T10:26:49.560Z,5.30
2019-06-07T10:27:49.595Z,4.70
2019-06-07T10:28:53.301Z,4.80
2019-06-07T10:29:49.686Z,5.00
2019-06-07T10:30:49.735Z,4.80
2019-06-07T10:31:49.786Z,4.60
2019-06-07T10:32:52.163Z,4.40
2019-06-07T10:33:49.872Z,5.20
2019-06-07T10:34:49.925Z,4.90
2019-06-07T10:35:49.965Z,4.70
2019-06-07T10:36:50.034Z,4.80
2019-06-07T10:37:50.056Z,4.60
2019-06-07T10:38:50.111Z,4.70
2019-06-07T10:39:50.147Z,4.50
2019-06-07T10:40:50.192Z,4.60
2019-06-07T10:41:50.238Z,4.60
2019-06-07T10:42:50.287Z,4.90
2019-06-07T10:43:50.333Z,4.70
2019-06-07T10:44:50.380Z,4.70
2019-06-07T10:45:50.527Z,4.50
2019-06-07T10:46:50.571Z,5.10
2019-06-07T10:47:50.516Z,4.90
2019-06-07T10:48:50.564Z,5.30
2019-06-07T10:49:50.606Z,4.90
2019-06-07T10:50:50.669Z,4.50
2019-06-07T10:51:50.698Z,4.40
2019-06-07T10:52:50.755Z,4.60
2019-06-07T10:53:50.791Z,4.90
2019-06-07T10:54:50.837Z,4.70
2019-06-07T10:55:50.884Z,4.30
2019-06-07T10:56:50.932Z,4.60
2019-06-07T10:57:50.977Z,4.60
2019-06-07T10:58:51.024Z,4.30
2019-06-07T10:59:51.065Z,4.40
2019-06-07T11:00:51.386Z,4.60
2019-06-07T11:01:51.158Z,4.50
2019-06-07T11:02:54.942Z,4.70
2019-06-07T11:03:51.252Z,4.30
2019-06-07T11:04:51.303Z,4.30
2019-06-07T11:05:51.342Z,4.50
2019-06-07T11:06:51.390Z,4.30
2019-06-07T11:07:51.777Z,4.60
2019-06-07T11:08:51.485Z,4.50
2019-06-07T11:10:05.709Z,4.30
2019-06-07T11:10:51.571Z,4.30
2019-06-07T11:11:51.622Z,4.20
2019-06-07T11:12:51.662Z,4.20
2019-06-07T11:13:52.572Z,4.10
2019-06-07T11:14:51.755Z,4.40
2019-06-07T11:15:51.800Z,4.00
2019-06-07T11:16:51.849Z,4.30
2019-06-07T11:17:51.892Z,4.20
2019-06-07T11:18:51.939Z,4.50
2019-06-07T11:19:52.007Z,4.40
2019-06-07T11:20:52.029Z,4.20
2019-06-07T11:21:52.076Z,4.50
2019-06-07T11:22:52.120Z,4.10
2019-06-07T11:23:52.167Z,4.20
2019-06-07T11:24:52.216Z,4.40
2019-06-07T11:25:52.258Z,4.60
2019-06-07T11:26:52.326Z,4.30
2019-06-07T11:27:52.353Z,4.50
2019-06-07T11:28:52.402Z,4.10
2019-06-07T11:29:52.440Z,4.20
2019-06-07T11:30:52.520Z,4.60
2019-06-07T11:31:52.536Z,4.20
2019-06-07T11:32:52.576Z,4.50
2019-06-07T11:33:52.678Z,4.70
2019-06-07T11:34:52.669Z,4.50
2019-06-07T11:35:52.716Z,4.90
2019-06-07T11:36:52.759Z,4.50
2019-06-07T11:37:52.806Z,4.30
2019-06-07T11:38:52.852Z,4.50
2019-06-07T11:39:52.897Z,4.60
2019-06-07T11:40:52.942Z,4.30
2019-06-07T11:41:52.988Z,4.60
2019-06-07T11:42:53.035Z,4.40
2019-06-07T11:43:53.082Z,4.20
2019-06-07T11:44:57.088Z,4.50
2019-06-07T11:45:53.172Z,4.90
2019-06-07T11:46:53.228Z,4.40
2019-06-07T11:47:53.277Z,4.00
2019-06-07T11:48:53.310Z,4.20
2019-06-07T11:49:53.354Z,4.50
2019-06-07T11:50:53.404Z,4.30
2019-06-07T11:51:53.450Z,4.10
2019-06-07T11:52:53.492Z,4.60
2019-06-07T11:53:53.541Z,4.50
2019-06-07T11:54:53.586Z,4.30
2019-06-07T11:55:53.630Z,4.00
2019-06-07T11:56:53.677Z,4.60
2019-06-07T11:57:53.722Z,4.00
2019-06-07T11:58:53.768Z,4.10
2019-06-07T11:59:53.822Z,4.20
2019-06-07T12:00:53.872Z,3.80
2019-06-07T12:01:53.906Z,4.10
2019-06-07T12:02:54.056Z,4.70
2019-06-07T12:03:53.998Z,4.50
2019-06-07T12:04:54.047Z,4.50
2019-06-07T12:05:54.103Z,4.40
2019-06-07T12:06:54.138Z,4.50
2019-06-07T12:07:57.080Z,4.50
2019-06-07T12:08:54.227Z,3.90
2019-06-07T12:09:56.766Z,4.00
2019-06-07T12:10:54.329Z,4.30
2019-06-07T12:11:54.365Z,4.10
2019-06-07T12:12:54.411Z,4.00
2019-06-07T12:13:54.486Z,4.10
2019-06-07T12:14:54.510Z,4.30
2019-06-07T12:15:54.556Z,4.30
2019-06-07T12:16:54.595Z,4.30
2019-06-07T12:17:54.644Z,4.00
2019-06-07T12:18:54.689Z,3.90
2019-06-07T12:19:54.743Z,4.10
2019-06-07T12:20:54.783Z,4.00
2019-06-07T12:21:54.834Z,4.30
2019-06-07T12:22:54.871Z,4.40
2019-06-07T12:23:54.919Z,4.20
2019-06-07T12:24:54.964Z,4.00
2019-06-07T12:25:55.010Z,4.10
2019-06-07T12:26:55.058Z,4.20
2019-06-07T12:27:55.103Z,4.50
2019-06-07T12:28:55.148Z,4.10
2019-06-07T12:29:55.194Z,4.10
2019-06-07T12:30:55.367Z,4.30
2019-06-07T12:31:55.297Z,3.60
2019-06-07T12:32:55.333Z,4.20
2019-06-07T12:33:55.378Z,4.10
2019-06-07T12:34:55.435Z,3.80
2019-06-07T12:35:55.485Z,4.20
2019-06-07T12:36:55.519Z,4.20
2019-06-07T12:37:55.565Z,4.30
2019-06-07T12:38:55.611Z,4.50
2019-06-07T12:39:55.656Z,3.90
2019-06-07T12:40:57.936Z,4.10
2019-06-07T12:41:55.750Z,4.10
2019-06-07T12:42:55.808Z,4.30
2019-06-07T12:43:59.076Z,4.00
2019-06-07T12:44:55.894Z,4.30
2019-06-07T12:45:55.943Z,3.70
2019-06-07T12:46:55.991Z,3.50
2019-06-07T12:47:56.035Z,3.60
2019-06-07T12:48:56.082Z,3.70
2019-06-07T12:49:56.117Z,3.80
2019-06-07T12:50:56.165Z,4.10
2019-06-07T12:51:56.212Z,3.90
2019-06-07T12:52:56.278Z,3.60
2019-06-07T12:53:56.312Z,3.80
2019-06-07T12:54:56.418Z,3.50
2019-06-07T12:55:59.994Z,4.10
2019-06-07T12:56:56.443Z,3.80
2019-06-07T12:57:56.659Z,3.80
2019-06-07T12:58:56.551Z,3.80
2019-06-07T12:59:56.588Z,3.90
2019-06-07T13:00:59.656Z,3.50
2019-06-07T13:02:02.042Z,3.80
2019-06-07T13:02:56.721Z,3.80
2019-06-07T13:03:56.768Z,3.70
2019-06-07T13:04:56.823Z,3.70
2019-06-07T13:05:56.862Z,3.80
2019-06-07T13:06:56.906Z,3.50
2019-06-07T13:07:56.955Z,3.80
2019-06-07T13:08:57.004Z,3.60
2019-06-07T13:09:57.059Z,3.70
2019-06-07T13:11:13.631Z,3.80
2019-06-07T13:11:57.140Z,4.00
2019-06-07T13:12:57.195Z,3.70
2019-06-07T13:13:57.280Z,4.00
2019-06-07T13:14:57.278Z,3.70
2019-06-07T13:15:57.331Z,3.60